createdAt,value
2023-05-22T00:02:08.126Z,98329.59
2023-05-22T00:04:34.407Z,98322.34
2023-05-22T00:07:00.551Z,98328.78
2023-05-22T00:09:26.726Z,98331.66
2023-05-22T00:11:52.932Z,98324.22
2023-05-22T00:14:19.080Z,98325.28
2023-05-22T00:16:45.377Z,98320.72
2023-05-22T00:19:11.613Z,98317.25
2023-05-22T00:21:37.847Z,98313.50
2023-05-22T00:24:04.009Z,98311.63
2023-05-22T00:26:30.145Z,98307.53
2023-05-22T00:28:56.285Z,98306.50
2023-05-22T00:31:22.446Z,98310.00
2023-05-22T00:33:48.638Z,98300.34
2023-05-22T00:36:14.810Z,98287.75
2023-05-22T00:38:40.962Z,98298.47
2023-05-22T00:41:07.106Z,98294.13
2023-05-22T00:43:33.256Z,98290.63
2023-05-22T00:45:59.416Z,98283.41
2023-05-22T00:48:25.547Z,98290.41
2023-05-22T00:50:51.705Z,98293.09
2023-05-22T00:53:17.934Z,98289.38
2023-05-22T00:55:44.076Z,98289.38
2023-05-22T00:58:10.207Z,98288.75
2023-05-22T01:00:36.463Z,98282.38
2023-05-22T01:03:02.889Z,98288.56
2023-05-22T01:05:29.090Z,98284.44
2023-05-22T01:07:55.243Z,98281.56
2023-05-22T01:10:21.382Z,98282.59
2023-05-22T01:12:47.520Z,98276.41
2023-05-22T01:15:13.666Z,98282.38
2023-05-22T01:17:39.829Z,98279.69
2023-05-22T01:20:05.997Z,98276.19
2023-05-22T01:22:32.189Z,98276.41
2023-05-22T01:24:58.341Z,98278.03
2023-05-22T01:27:24.479Z,98280.13
2023-05-22T01:29:50.642Z,98277.22
2023-05-22T01:32:16.814Z,98283.66
2023-05-22T01:34:42.973Z,98289.81
2023-05-22T01:37:09.147Z,98291.69
2023-05-22T01:39:35.316Z,98279.09
2023-05-22T01:42:01.461Z,98282.78
2023-05-22T01:44:27.627Z,98281.97
2023-05-22T01:46:53.801Z,98281.16
2023-05-22T01:49:19.948Z,98283.84
2023-05-22T01:51:46.122Z,98292.72
2023-05-22T01:54:12.241Z,98281.16
2023-05-22T01:56:38.365Z,98285.47
2023-05-22T01:59:04.911Z,98285.47
2023-05-22T02:01:31.084Z,98289.22
2023-05-22T02:03:57.247Z,98283.84
2023-05-22T02:06:23.415Z,98277.69
2023-05-22T02:08:49.549Z,98275.00
2023-05-22T02:11:15.698Z,98283.84
2023-05-22T02:13:41.859Z,98274.75
2023-05-22T02:16:08.033Z,98273.13
2023-05-22T02:18:34.195Z,98269.38
2023-05-22T02:21:00.357Z,98269.38
2023-05-22T02:23:26.622Z,98272.31
2023-05-22T02:25:52.773Z,98276.88
2023-05-22T02:28:18.934Z,98275.19
2023-05-22T02:30:45.068Z,98277.69
2023-05-22T02:33:11.309Z,98266.94
2023-05-22T02:35:37.567Z,98263.47
2023-05-22T02:38:03.731Z,98266.13
2023-05-22T02:40:29.885Z,98266.13
2023-05-22T02:42:56.056Z,98260.97
2023-05-22T02:45:22.193Z,98264.47
2023-05-22T02:47:48.359Z,98262.59
2023-05-22T02:50:14.573Z,98254.56
2023-05-22T02:52:40.722Z,98259.13
2023-05-22T02:55:06.862Z,98261.81
2023-05-22T02:57:33.018Z,98263.47
2023-05-22T02:59:59.146Z,98250.03
2023-05-22T03:02:25.293Z,98252.72
2023-05-22T03:04:51.720Z,98250.88
2023-05-22T03:07:17.862Z,98256.44
2023-05-22T03:09:43.989Z,98258.09
2023-05-22T03:12:10.446Z,98258.09
2023-05-22T03:14:36.925Z,98262.59
2023-05-22T03:17:03.169Z,98262.59
2023-05-22T03:19:29.757Z,98266.13
2023-05-22T03:21:55.969Z,98257.25
2023-05-22T03:24:22.116Z,98253.75
2023-05-22T03:26:48.367Z,98255.63
2023-05-22T03:29:14.573Z,98252.94
2023-05-22T03:31:40.747Z,98251.31
2023-05-22T03:34:06.964Z,98251.06
2023-05-22T03:36:33.182Z,98252.94
2023-05-22T03:38:59.325Z,98250.25
2023-05-22T03:41:25.516Z,98258.50
2023-05-22T03:43:51.650Z,98250.47
2023-05-22T03:46:17.884Z,98256.88
2023-05-22T03:48:44.084Z,98256.69
2023-05-22T03:51:10.251Z,98260.16
2023-05-22T03:53:36.385Z,98250.25
2023-05-22T03:56:02.536Z,98248.38
2023-05-22T03:58:28.684Z,98250.47
2023-05-22T04:00:54.858Z,98250.47
2023-05-22T04:03:21.200Z,98247.56
2023-05-22T04:05:47.426Z,98249.66
2023-05-22T04:08:13.576Z,98245.09
2023-05-22T04:10:39.964Z,98250.47
2023-05-22T04:13:06.401Z,98253.16
2023-05-22T04:15:32.634Z,98248.84
2023-05-22T04:17:58.869Z,98242.66
2023-05-22T04:20:25.073Z,98246.16
2023-05-22T04:22:51.278Z,98246.97
2023-05-22T04:25:17.436Z,98248.84
2023-05-22T04:27:43.565Z,98248.84
2023-05-22T04:30:09.726Z,98241.63
2023-05-22T04:32:35.928Z,98240.81
2023-05-22T04:35:02.128Z,98246.16
2023-05-22T04:37:28.277Z,98249.91
2023-05-22T04:39:54.462Z,98249.06
2023-05-22T04:42:20.605Z,98245.56
2023-05-22T04:44:46.766Z,98253.16
2023-05-22T04:47:12.986Z,98253.41
2023-05-22T04:49:39.209Z,98255.25
2023-05-22T04:52:05.362Z,98252.59
2023-05-22T04:54:31.519Z,98244.53
2023-05-22T04:56:57.647Z,98241.84
2023-05-22T04:59:23.783Z,98247.22
2023-05-22T05:01:49.948Z,98234.84
2023-05-22T05:04:16.081Z,98238.34
2023-05-22T05:06:42.233Z,98233.22
2023-05-22T05:09:08.409Z,98237.72
2023-05-22T05:11:34.553Z,98245.09
2023-05-22T05:14:00.715Z,98231.13
2023-05-22T05:16:26.938Z,98240.19
2023-05-22T05:18:53.170Z,98232.75
2023-05-22T05:21:19.330Z,98229.03
2023-05-22T05:23:45.498Z,98234.38
2023-05-22T05:26:11.623Z,98235.44
2023-05-22T05:28:37.760Z,98241.00
2023-05-22T05:31:03.912Z,98237.53
2023-05-22T05:33:30.049Z,98241.25
2023-05-22T05:35:56.233Z,98240.81
2023-05-22T05:38:22.392Z,98240.81
2023-05-22T05:40:48.525Z,98240.81
2023-05-22T05:43:14.672Z,98242.44
2023-05-22T05:45:41.079Z,98246.97
2023-05-22T05:48:07.273Z,98246.16
2023-05-22T05:50:33.423Z,98243.47
2023-05-22T05:52:59.591Z,98243.28
2023-05-22T05:55:25.719Z,98242.88
2023-05-22T05:57:51.852Z,98251.75
2023-05-22T06:00:18.368Z,98248.25
2023-05-22T06:02:44.603Z,98245.78
2023-05-22T06:05:10.893Z,98250.13
2023-05-22T06:07:37.126Z,98245.56
2023-05-22T06:10:03.299Z,98236.72
2023-05-22T06:12:29.433Z,98243.94
2023-05-22T06:14:55.592Z,98246.38
2023-05-22T06:17:21.729Z,98251.75
2023-05-22T06:19:47.868Z,98248.03
2023-05-22T06:22:14.278Z,98250.72
2023-05-22T06:24:40.428Z,98252.59
2023-05-22T06:27:06.585Z,98257.94
2023-05-22T06:29:32.752Z,98260.63
2023-05-22T06:31:58.927Z,98257.09
2023-05-22T06:34:25.183Z,98257.09
2023-05-22T06:36:51.475Z,98256.28
2023-05-22T06:39:17.629Z,98260.84
2023-05-22T06:41:43.771Z,98257.94
2023-05-22T06:44:09.957Z,98267.00
2023-05-22T06:46:36.213Z,98263.50
2023-05-22T06:49:02.435Z,98267.00
2023-05-22T06:51:28.610Z,98269.69
2023-05-22T06:53:54.756Z,98273.19
2023-05-22T06:56:20.895Z,98267.81
2023-05-22T06:58:47.073Z,98262.72
2023-05-22T07:01:13.288Z,98260.84
2023-05-22T07:03:39.444Z,98261.66
2023-05-22T07:06:05.646Z,98263.31
2023-05-22T07:08:31.816Z,98268.88
2023-05-22T07:10:57.959Z,98267.81
2023-05-22T07:13:24.117Z,98271.34
2023-05-22T07:15:50.271Z,98268.66
2023-05-22T07:18:16.403Z,98270.50
2023-05-22T07:20:42.790Z,98272.97
2023-05-22T07:23:09.036Z,98275.66
2023-05-22T07:25:35.180Z,98269.25
2023-05-22T07:28:01.365Z,98276.47
2023-05-22T07:30:27.575Z,98277.06
2023-05-22T07:32:53.848Z,98277.28
2023-05-22T07:35:20.194Z,98288.00
2023-05-22T07:37:46.330Z,98274.59
2023-05-22T07:40:12.465Z,98285.13
2023-05-22T07:42:38.635Z,98291.53
2023-05-22T07:45:04.781Z,98292.56
2023-05-22T07:47:31.009Z,98288.00
2023-05-22T07:49:57.211Z,98290.69
2023-05-22T07:52:23.340Z,98291.75
2023-05-22T07:54:49.506Z,98292.56
2023-05-22T07:57:15.702Z,98295.84
2023-05-22T07:59:41.842Z,98296.06
2023-05-22T08:02:08.111Z,98297.72
2023-05-22T08:04:34.425Z,98293.16
2023-05-22T08:07:00.653Z,98305.50
2023-05-22T08:09:26.815Z,98301.22
2023-05-22T08:11:53.059Z,98304.69
2023-05-22T08:14:19.201Z,98299.34
2023-05-22T08:16:45.392Z,98297.47
2023-05-22T08:19:11.673Z,98301.81
2023-05-22T08:21:37.982Z,98307.97
2023-05-22T08:24:04.134Z,98304.50
2023-05-22T08:26:32.093Z,98308.81
2023-05-22T08:28:58.428Z,98310.47
2023-05-22T08:31:24.584Z,98306.13
2023-05-22T08:33:50.776Z,98303.22
2023-05-22T08:36:16.919Z,98317.66
2023-05-22T08:38:43.063Z,98309.63
2023-05-22T08:41:09.234Z,98308.59
2023-05-22T08:43:35.363Z,98305.91
2023-05-22T08:46:01.516Z,98311.28
2023-05-22T08:48:27.687Z,98310.22
2023-05-22T08:50:53.852Z,98307.78
2023-05-22T08:53:19.988Z,98312.09
2023-05-22T08:55:46.155Z,98304.84
2023-05-22T08:58:12.339Z,98306.72
2023-05-22T09:00:38.726Z,98312.69
2023-05-22T09:03:05.134Z,98311.06
2023-05-22T09:05:31.328Z,98302.16
2023-05-22T09:08:02.584Z,98313.50
2023-05-22T09:10:34.978Z,98313.50
2023-05-22T09:13:01.103Z,98314.56
2023-05-22T09:15:27.260Z,98307.31
2023-05-22T09:17:53.509Z,98314.31
2023-05-22T09:20:19.711Z,98306.28
2023-05-22T09:22:45.888Z,98310.38
2023-05-22T09:25:12.063Z,98310.59
2023-05-22T09:27:38.221Z,98312.22
2023-05-22T09:30:04.380Z,98312.22
2023-05-22T09:32:30.597Z,98313.06
2023-05-22T09:34:56.832Z,98313.88
2023-05-22T09:37:22.958Z,98322.75
2023-05-22T09:39:49.248Z,98323.56
2023-05-22T09:42:15.432Z,98313.66
2023-05-22T09:44:41.595Z,98317.19
2023-05-22T09:47:07.778Z,98319.00
2023-05-22T09:49:33.919Z,98317.75
2023-05-22T09:52:00.157Z,98317.53
2023-05-22T09:54:26.321Z,98314.84
2023-05-22T09:56:52.523Z,98313.00
2023-05-22T09:59:18.662Z,98316.47
2023-05-22T10:01:44.878Z,98322.44
2023-05-22T10:04:11.089Z,98314.19
2023-05-22T10:06:37.419Z,98316.06
2023-05-22T10:09:03.572Z,98321.44
2023-05-22T10:11:29.706Z,98317.69
2023-05-22T10:13:55.871Z,98316.06
2023-05-22T10:16:22.085Z,98320.38
2023-05-22T10:18:48.321Z,98318.75
2023-05-22T10:21:14.480Z,98315.81
2023-05-22T10:23:40.646Z,98316.88
2023-05-22T10:26:06.800Z,98322.03
2023-05-22T10:28:32.952Z,98316.41
2023-05-22T10:30:59.133Z,98315.41
2023-05-22T10:33:25.294Z,98318.06
2023-05-22T10:35:51.454Z,98314.34
2023-05-22T10:38:18.441Z,98312.47
2023-05-22T10:40:44.677Z,98307.09
2023-05-22T10:43:11.021Z,98306.06
2023-05-22T10:45:37.229Z,98304.22
2023-05-22T10:48:03.388Z,98302.34
2023-05-22T10:50:29.589Z,98304.00
2023-05-22T10:52:55.767Z,98305.63
2023-05-22T10:55:21.908Z,98298.38
2023-05-22T10:57:48.094Z,98306.44
2023-05-22T11:00:14.327Z,98302.94
2023-05-22T11:02:40.590Z,98302.94
2023-05-22T11:05:07.002Z,98300.84
2023-05-22T11:07:33.289Z,98299.19
2023-05-22T11:09:59.468Z,98297.13
2023-05-22T11:12:25.699Z,98294.22
2023-05-22T11:14:51.955Z,98290.72
2023-05-22T11:17:18.124Z,98291.53
2023-05-22T11:19:44.340Z,98287.81
2023-05-22T11:22:10.598Z,98288.84
2023-05-22T11:24:36.743Z,98283.28
2023-05-22T11:27:02.905Z,98279.53
2023-05-22T11:29:29.056Z,98284.91
2023-05-22T11:31:55.248Z,98271.50
2023-05-22T11:34:21.393Z,98267.75
2023-05-22T11:36:47.571Z,98270.22
2023-05-22T11:39:13.710Z,98276.41
2023-05-22T11:41:39.854Z,98271.84
2023-05-22T11:44:06.025Z,98262.97
2023-05-22T11:46:32.318Z,98263.78
2023-05-22T11:48:58.496Z,98265.25
2023-05-22T11:51:24.671Z,98260.91
2023-05-22T11:53:50.816Z,98262.56
2023-05-22T11:56:16.953Z,98259.63
2023-05-22T11:58:43.185Z,98256.94
2023-05-22T12:01:09.342Z,98256.72
2023-05-22T12:03:35.570Z,98258.59
2023-05-22T12:06:01.858Z,98249.50
2023-05-22T12:08:28.066Z,98250.31
2023-05-22T12:10:54.216Z,98252.78
2023-05-22T12:13:20.377Z,98250.09
2023-05-22T12:15:46.553Z,98246.34
2023-05-22T12:18:12.752Z,98247.19
2023-05-22T12:20:39.171Z,98250.69
2023-05-22T12:23:05.448Z,98250.69
2023-05-22T12:25:31.612Z,98256.66
2023-05-22T12:27:57.804Z,98249.41
2023-05-22T12:30:23.948Z,98254.78
2023-05-22T12:32:50.185Z,98249.16
2023-05-22T12:35:16.425Z,98246.47
2023-05-22T12:37:42.585Z,98258.88
2023-05-22T12:40:08.781Z,98266.91
2023-05-22T12:42:34.937Z,98255.94
2023-05-22T12:45:01.112Z,98268.53
2023-05-22T12:47:27.393Z,98262.16
2023-05-22T12:49:53.677Z,98270.81
2023-05-22T12:52:19.909Z,98269.97
2023-05-22T12:54:46.126Z,98273.50
2023-05-22T12:57:12.319Z,98271.63
2023-05-22T12:59:38.558Z,98278.59
2023-05-22T13:02:04.720Z,98274.91
2023-05-22T13:04:30.978Z,98272.78
2023-05-22T13:06:57.150Z,98274.44
2023-05-22T13:09:23.331Z,98275.25
2023-05-22T13:11:49.533Z,98278.75
2023-05-22T13:14:15.697Z,98282.31
2023-05-22T13:16:41.865Z,98272.38
2023-05-22T13:19:08.154Z,98267.81
2023-05-22T13:21:34.356Z,98265.72
2023-05-22T13:24:00.512Z,98268.41
2023-05-22T13:26:26.886Z,98259.56
2023-05-22T13:28:53.108Z,98255.81
2023-05-22T13:31:19.256Z,98251.25
2023-05-22T13:33:45.447Z,98254.19
2023-05-22T13:36:11.616Z,98259.31
2023-05-22T13:38:37.836Z,98255.59
2023-05-22T13:41:04.010Z,98251.03
2023-05-22T13:43:30.154Z,98251.63
2023-05-22T13:45:56.282Z,98257.22
2023-05-22T13:48:22.459Z,98256.19
2023-05-22T13:50:48.604Z,98261.56
2023-05-22T13:53:14.741Z,98255.13
2023-05-22T13:55:41.144Z,98259.44
2023-05-22T13:58:07.542Z,98254.06
2023-05-22T14:00:33.686Z,98261.91
2023-05-22T14:02:59.931Z,98250.34
2023-05-22T14:05:26.175Z,98249.28
2023-05-22T14:07:52.312Z,98248.28
2023-05-22T14:10:18.487Z,98246.41
2023-05-22T14:12:44.627Z,98244.53
2023-05-22T14:15:10.772Z,98254.19
2023-05-22T14:17:36.941Z,98257.72
2023-05-22T14:20:03.182Z,98262.25
2023-05-22T14:22:29.345Z,98275.47
2023-05-22T14:24:55.512Z,98282.50
2023-05-22T14:27:21.694Z,98279.81
2023-05-22T14:29:47.847Z,98288.69
2023-05-22T14:32:13.993Z,98289.50
2023-05-22T14:34:40.117Z,98287.63
2023-05-22T14:37:06.293Z,98297.31
2023-05-22T14:39:32.570Z,98298.13
2023-05-22T14:41:58.714Z,98298.72
2023-05-22T14:44:25.009Z,98288.00
2023-05-22T14:46:51.394Z,98290.69
2023-05-22T14:49:17.662Z,98277.25
2023-05-22T14:51:43.808Z,98277.84
2023-05-22T14:54:10.254Z,98271.63
2023-05-22T14:56:36.433Z,98270.59
2023-05-22T14:59:02.579Z,98275.72
2023-05-22T15:01:28.772Z,98275.72
2023-05-22T15:03:54.972Z,98280.28
2023-05-22T15:06:21.137Z,98281.09
2023-05-22T15:08:47.286Z,98273.88
2023-05-22T15:11:13.538Z,98277.38
2023-05-22T15:13:39.688Z,98270.13
2023-05-22T15:16:05.926Z,98261.28
2023-05-22T15:18:32.115Z,98254.84
2023-05-22T15:20:58.414Z,98251.34
2023-05-22T15:23:24.572Z,98244.69
2023-05-22T15:25:50.721Z,98240.38
2023-05-22T15:28:16.855Z,98252.75
2023-05-22T15:30:43.419Z,98247.97
2023-05-22T15:33:09.719Z,98248.78
2023-05-22T15:35:35.895Z,98246.69
2023-05-22T15:38:02.050Z,98256.63
2023-05-22T15:40:28.178Z,98257.44
2023-05-22T15:42:54.328Z,98250.19
2023-05-22T15:45:20.714Z,98252.88
2023-05-22T15:47:46.905Z,98254.53
2023-05-22T15:50:13.097Z,98253.69
2023-05-22T15:52:39.289Z,98258.25
2023-05-22T15:55:05.443Z,98252.66
2023-05-22T15:57:31.595Z,98249.97
2023-05-22T15:59:57.770Z,98251.59
2023-05-22T16:02:23.956Z,98250.78
2023-05-22T16:04:50.140Z,98254.06
2023-05-22T16:07:16.315Z,98266.69
2023-05-22T16:09:42.469Z,98271.00
2023-05-22T16:12:08.614Z,98271.81
2023-05-22T16:14:34.783Z,98274.50
2023-05-22T16:17:00.934Z,98277.78
2023-05-22T16:19:30.314Z,98276.16
2023-05-22T16:21:56.519Z,98258.16
2023-05-22T16:24:22.662Z,98272.19
2023-05-22T16:26:48.821Z,98282.09
2023-05-22T16:29:15.060Z,98288.28
2023-05-22T16:31:41.248Z,98282.09
2023-05-22T16:34:07.423Z,98279.44
2023-05-22T16:36:33.981Z,98266.00
2023-05-22T16:39:00.165Z,98258.75
2023-05-22T16:41:26.293Z,98255.25
2023-05-22T16:43:52.453Z,98242.84
2023-05-22T16:46:18.645Z,98239.13
2023-05-22T16:48:44.844Z,98232.69
2023-05-22T16:51:11.105Z,98242.63
2023-05-22T16:53:38.570Z,98246.13
2023-05-22T16:56:04.858Z,98241.56
2023-05-22T16:58:31.031Z,98236.19
2023-05-22T17:01:03.566Z,98234.31
2023-05-22T17:03:29.835Z,98237.00
2023-05-22T17:05:56.360Z,98241.34
2023-05-22T17:08:22.488Z,98226.84
2023-05-22T17:10:48.627Z,98222.53
2023-05-22T17:13:14.779Z,98233.28
2023-05-22T17:15:41.055Z,98231.41
2023-05-22T17:18:07.471Z,98234.91
2023-05-22T17:20:33.740Z,98241.13
2023-05-22T17:22:59.977Z,98259.94
2023-05-22T17:25:26.111Z,98271.50
2023-05-22T17:27:52.292Z,98280.38
2023-05-22T17:30:18.443Z,98269.63
2023-05-22T17:32:44.605Z,98266.13
2023-05-22T17:35:10.761Z,98263.44
2023-05-22T17:37:36.911Z,98281.44
2023-05-22T17:40:03.061Z,98301.84
2023-05-22T17:42:29.273Z,98302.66
2023-05-22T17:44:55.507Z,98316.91
2023-05-22T17:47:21.928Z,98324.16
2023-05-22T17:49:48.525Z,98337.59
2023-05-22T17:52:15.136Z,98348.34
2023-05-22T17:54:41.436Z,98350.81
2023-05-22T17:57:07.853Z,98355.38
2023-05-22T17:59:34.227Z,98356.19
2023-05-22T18:02:00.588Z,98351.63
2023-05-22T18:04:26.841Z,98350.00
2023-05-22T18:06:53.062Z,98351.03
2023-05-22T18:09:19.245Z,98353.72
2023-05-22T18:11:45.508Z,98361.75
2023-05-22T18:14:11.775Z,98371.47
2023-05-22T18:16:38.257Z,98379.53
2023-05-22T18:19:04.631Z,98372.50
2023-05-22T18:21:30.818Z,98373.31
2023-05-22T18:23:56.958Z,98381.16
2023-05-22T18:26:23.119Z,98389.22
2023-05-22T18:28:49.278Z,98399.16
2023-05-22T18:31:15.452Z,98392.38
2023-05-22T18:33:41.641Z,98393.78
2023-05-22T18:36:07.770Z,98391.09
2023-05-22T18:38:34.107Z,98385.72
2023-05-22T18:41:00.411Z,98379.53
2023-05-22T18:43:26.547Z,98385.72
2023-05-22T18:45:52.852Z,98388.41
2023-05-22T18:48:19.114Z,98392.97
2023-05-22T18:50:45.448Z,98399.16
2023-05-22T18:53:11.954Z,98401.84
2023-05-22T18:55:38.368Z,98403.47
2023-05-22T18:58:04.549Z,98395.66
2023-05-22T19:00:30.872Z,98412.59
2023-05-22T19:02:57.198Z,98404.53
2023-05-22T19:05:23.371Z,98408.03
2023-05-22T19:07:49.507Z,98418.78
2023-05-22T19:10:15.730Z,98421.47
2023-05-22T19:12:41.907Z,98416.09
2023-05-22T19:15:08.038Z,98417.16
2023-05-22T19:17:34.219Z,98414.47
2023-05-22T19:20:00.379Z,98406.41
2023-05-22T19:22:26.519Z,98415.28
2023-05-22T19:24:52.695Z,98408.03
2023-05-22T19:27:18.847Z,98412.59
2023-05-22T19:29:45.020Z,98408.25
2023-05-22T19:32:11.208Z,98422.53
2023-05-22T19:34:37.373Z,98420.66
2023-05-22T19:37:03.534Z,98421.47
2023-05-22T19:39:29.726Z,98435.97
2023-05-22T19:41:55.879Z,98426.25
2023-05-22T19:44:22.035Z,98429.75
2023-05-22T19:46:48.349Z,98437.81
2023-05-22T19:49:14.622Z,98435.13
2023-05-22T19:51:40.753Z,98442.16
2023-05-22T19:54:06.910Z,98446.72
2023-05-22T19:56:33.051Z,98444.03
2023-05-22T19:58:59.221Z,98443.19
2023-05-22T20:01:25.428Z,98443.19
2023-05-22T20:03:51.771Z,98441.53
2023-05-22T20:06:18.008Z,98446.09
2023-05-22T20:08:44.192Z,98455.78
2023-05-22T20:11:10.350Z,98453.09
2023-05-22T20:13:36.491Z,98448.78
2023-05-22T20:16:02.729Z,98456.03
2023-05-22T20:18:28.886Z,98453.09
2023-05-22T20:20:55.057Z,98452.28
2023-05-22T20:23:21.239Z,98462.22
2023-05-22T20:25:47.390Z,98453.34
2023-05-22T20:28:13.572Z,98454.97
2023-05-22T20:30:39.760Z,98459.53
2023-05-22T20:33:05.938Z,98461.41
2023-05-22T20:35:32.265Z,98462.22
2023-05-22T20:37:58.462Z,98463.03
2023-05-22T20:40:24.703Z,98459.53
2023-05-22T20:42:50.960Z,98462.22
2023-05-22T20:45:17.197Z,98456.84
2023-05-22T20:47:43.465Z,98463.03
2023-05-22T20:50:09.716Z,98459.53
2023-05-22T20:52:35.892Z,98462.22
2023-05-22T20:55:02.032Z,98466.53
2023-05-22T20:57:28.180Z,98467.81
2023-05-22T20:59:54.353Z,98467.59
2023-05-22T21:02:20.515Z,98464.91
2023-05-22T21:04:46.675Z,98463.25
2023-05-22T21:07:13.451Z,98464.09
2023-05-22T21:09:39.609Z,98461.41
2023-05-22T21:12:05.754Z,98465.13
2023-05-22T21:14:31.901Z,98467.59
2023-05-22T21:16:58.074Z,98469.69
2023-05-22T21:19:24.370Z,98467.00
2023-05-22T21:21:50.572Z,98475.06
2023-05-22T21:24:16.696Z,98472.38
2023-05-22T21:26:42.836Z,98475.06
2023-05-22T21:29:08.986Z,98479.63
2023-05-22T21:31:35.796Z,98479.63
2023-05-22T21:34:02.180Z,98471.56
2023-05-22T21:36:28.332Z,98474.25
2023-05-22T21:38:54.463Z,98469.91
2023-05-22T21:41:20.599Z,98467.22
2023-05-22T21:43:46.759Z,98468.03
2023-05-22T21:46:12.921Z,98469.91
2023-05-22T21:48:39.119Z,98473.41
2023-05-22T21:51:05.409Z,98478.78
2023-05-22T21:53:31.663Z,98484.16
2023-05-22T21:55:57.784Z,98487.69
2023-05-22T21:58:23.941Z,98483.34
2023-05-22T22:00:50.121Z,98487.69
2023-05-22T22:03:16.504Z,98489.53
2023-05-22T22:05:42.743Z,98485.00
2023-05-22T22:08:09.002Z,98483.34
2023-05-22T22:10:35.299Z,98487.88
2023-05-22T22:13:01.461Z,98488.72
2023-05-22T22:15:27.597Z,98494.31
2023-05-22T22:17:53.764Z,98493.25
2023-05-22T22:20:24.759Z,98489.53
2023-05-22T22:22:56.597Z,98495.94
2023-05-22T22:25:22.745Z,98490.78
2023-05-22T22:27:48.900Z,98494.31
2023-05-22T22:30:15.053Z,98488.94
2023-05-22T22:32:41.255Z,98488.09
2023-05-22T22:35:07.403Z,98486.25
2023-05-22T22:37:33.586Z,98493.25
2023-05-22T22:39:59.763Z,98488.94
2023-05-22T22:42:25.914Z,98491.63
2023-05-22T22:44:52.052Z,98497.00
2023-05-22T22:47:18.220Z,98502.13
2023-05-22T22:49:44.355Z,98503.19
2023-05-22T22:52:10.478Z,98502.38
2023-05-22T22:54:36.867Z,98510.44
2023-05-22T22:57:03.123Z,98505.06
2023-05-22T22:59:29.262Z,98499.69
2023-05-22T23:01:55.470Z,98502.38
2023-05-22T23:04:21.781Z,98515.81
2023-05-22T23:06:47.984Z,98511.47
2023-05-22T23:09:14.151Z,98517.91
2023-05-22T23:11:40.313Z,98516.03
2023-05-22T23:14:06.459Z,98523.28
2023-05-22T23:16:32.717Z,98517.09
2023-05-22T23:18:58.961Z,98518.91
2023-05-22T23:21:25.170Z,98522.66
2023-05-22T23:23:51.361Z,98519.78
2023-05-22T23:26:17.526Z,98525.13
2023-05-22T23:28:43.990Z,98532.16
2023-05-22T23:31:10.302Z,98526.97
2023-05-22T23:33:36.462Z,98519.78
2023-05-22T23:36:02.593Z,98530.50
2023-05-22T23:38:28.755Z,98525.13
2023-05-22T23:40:54.933Z,98523.47
2023-05-22T23:43:21.099Z,98531.31
2023-05-22T23:45:47.256Z,98533.19
2023-05-22T23:48:13.394Z,98530.50
2023-05-22T23:50:39.533Z,98530.50
2023-05-22T23:53:05.713Z,98531.53
2023-05-22T23:55:31.895Z,98533.41
2023-05-22T23:57:58.099Z,98535.03
